KIMM

Immokalee Regional Airport

Immokalee, Florida, USA
METAR KIMM 241155Z AUTO 08004KT 10SM SCT070 20/19 A3022 RMK AO2
Observed Flight Rules
Feb-24 @ 11:55 UTC (26 minutes ago) Visual Flight Rules
Wind Visibility Clouds
80° at 4 knots 10 miles
  • Scattered at 7,000' AGL
Temperatures Readings
Current 20°C / 68°F
Dewpoint 19°C / 66°F
Humidity 94%
Altimeter 30.22" Hg
Pressure 1023 hPa
Elevation 12
METAR KIMM 241155Z AUTO 08004KT 10SM SCT070 20/19 A3022 RMK AO2
Observed Flight Rules
Feb-24 @ 11:55 UTC
(26 minutes ago)
VFR
Wind Visibility
80° at 4 knots 10 miles
Clouds
  • Scattered at 7,000' AGL
Temperature Dewpoint
20°C / 68°F 19°C / 66°F
Humidity Altimeter Pressure
94% 30.22" Hg 1023 hPa